sensor_id;sensor_type;location;lat;lon;timestamp;pressure;altitude;pressure_sealevel;temperature;humidity
7966;BME280;4028;43.272;26.932;2023-01-26T00:00:49;100100.34;;;1.56;100.00
7966;BME280;4028;43.272;26.932;2023-01-26T00:03:15;100105.75;;;1.52;100.00
7966;BME280;4028;43.272;26.932;2023-01-26T00:05:41;100082.66;;;1.43;100.00
7966;BME280;4028;43.272;26.932;2023-01-26T00:08:07;100093.81;;;1.46;100.00
7966;BME280;4028;43.272;26.932;2023-01-26T00:10:38;100088.72;;;1.43;100.00
7966;BME280;4028;43.272;26.932;2023-01-26T00:13:04;100098.19;;;1.46;100.00
7966;BME280;4028;43.272;26.932;2023-01-26T00:15:34;100088.34;;;1.52;100.00
7966;BME280;4028;43.272;26.932;2023-01-26T00:18:00;100082.59;;;1.44;100.00
7966;BME280;4028;43.272;26.932;2023-01-26T00:20:26;100065.22;;;1.43;100.00
7966;BME280;4028;43.272;26.932;2023-01-26T00:22:52;100057.47;;;1.42;100.00
7966;BME280;4028;43.272;26.932;2023-01-26T00:25:18;100070.22;;;1.49;100.00
7966;BME280;4028;43.272;26.932;2023-01-26T00:27:43;100060.03;;;1.43;100.00
7966;BME280;4028;43.272;26.932;2023-01-26T00:30:09;100060.81;;;1.45;100.00
7966;BME280;4028;43.272;26.932;2023-01-26T00:32:35;100053.66;;;1.50;100.00
7966;BME280;4028;43.272;26.932;2023-01-26T00:35:01;100054.50;;;1.51;100.00
7966;BME280;4028;43.272;26.932;2023-01-26T00:37:27;100035.69;;;1.43;100.00
7966;BME280;4028;43.272;26.932;2023-01-26T00:39:52;100053.47;;;1.55;100.00
7966;BME280;4028;43.272;26.932;2023-01-26T00:42:18;100054.81;;;1.43;100.00
7966;BME280;4028;43.272;26.932;2023-01-26T00:44:43;100045.81;;;1.50;100.00
7966;BME280;4028;43.272;26.932;2023-01-26T00:47:11;100043.22;;;1.50;100.00
7966;BME280;4028;43.272;26.932;2023-01-26T00:49:36;100038.91;;;1.49;100.00
7966;BME280;4028;43.272;26.932;2023-01-26T00:52:02;100037.41;;;1.44;100.00
7966;BME280;4028;43.272;26.932;2023-01-26T00:54:28;100036.88;;;1.36;100.00
7966;BME280;4028;43.272;26.932;2023-01-26T00:56:54;100038.50;;;1.38;100.00
7966;BME280;4028;43.272;26.932;2023-01-26T00:59:20;100034.09;;;1.40;100.00
7966;BME280;4028;43.272;26.932;2023-01-26T01:01:46;100030.69;;;1.38;100.00
7966;BME280;4028;43.272;26.932;2023-01-26T01:04:12;100030.56;;;1.41;100.00
7966;BME280;4028;43.272;26.932;2023-01-26T01:06:38;100024.88;;;1.52;100.00
7966;BME280;4028;43.272;26.932;2023-01-26T01:09:03;100029.53;;;1.45;100.00
7966;BME280;4028;43.272;26.932;2023-01-26T01:11:29;100026.00;;;1.46;100.00
7966;BME280;4028;43.272;26.932;2023-01-26T01:13:54;99997.19;;;1.29;100.00
7966;BME280;4028;43.272;26.932;2023-01-26T01:16:20;100034.47;;;1.51;100.00
7966;BME280;4028;43.272;26.932;2023-01-26T01:18:45;100024.75;;;1.55;100.00
7966;BME280;4028;43.272;26.932;2023-01-26T01:21:14;100021.31;;;1.54;100.00
7966;BME280;4028;43.272;26.932;2023-01-26T01:23:41;100017.13;;;1.50;100.00
7966;BME280;4028;43.272;26.932;2023-01-26T01:26:07;100010.81;;;1.56;100.00
7966;BME280;4028;43.272;26.932;2023-01-26T01:28:33;100018.06;;;1.49;100.00
7966;BME280;4028;43.272;26.932;2023-01-26T01:31:06;100003.75;;;1.58;100.00
7966;BME280;4028;43.272;26.932;2023-01-26T01:33:31;100007.53;;;1.51;100.00
7966;BME280;4028;43.272;26.932;2023-01-26T01:38:22;100000.81;;;1.66;100.00
7966;BME280;4028;43.272;26.932;2023-01-26T01:40:48;99994.59;;;1.68;100.00
7966;BME280;4028;43.272;26.932;2023-01-26T01:43:13;99994.69;;;1.67;100.00
7966;BME280;4028;43.272;26.932;2023-01-26T01:45:46;99991.44;;;1.62;100.00
7966;BME280;4028;43.272;26.932;2023-01-26T01:48:42;99992.19;;;1.64;100.00
7966;BME280;4028;43.272;26.932;2023-01-26T01:51:15;99985.16;;;1.66;100.00
7966;BME280;4028;43.272;26.932;2023-01-26T01:53:46;99952.56;;;1.55;100.00
7966;BME280;4028;43.272;26.932;2023-01-26T01:56:16;99977.91;;;1.72;100.00
7966;BME280;4028;43.272;26.932;2023-01-26T01:58:46;99975.66;;;1.65;100.00
7966;BME280;4028;43.272;26.932;2023-01-26T02:01:12;99970.09;;;1.72;100.00
7966;BME280;4028;43.272;26.932;2023-01-26T02:03:39;99959.81;;;1.69;100.00
7966;BME280;4028;43.272;26.932;2023-01-26T02:09:09;99960.19;;;1.60;100.00
7966;BME280;4028;43.272;26.932;2023-01-26T02:11:55;99960.66;;;1.70;100.00
7966;BME280;4028;43.272;26.932;2023-01-26T02:14:23;99959.91;;;1.66;100.00
7966;BME280;4028;43.272;26.932;2023-01-26T02:16:49;99961.69;;;1.66;100.00
7966;BME280;4028;43.272;26.932;2023-01-26T02:19:31;99958.22;;;1.65;100.00
7966;BME280;4028;43.272;26.932;2023-01-26T02:22:06;99948.06;;;1.59;100.00
7966;BME280;4028;43.272;26.932;2023-01-26T02:24:37;99919.81;;;1.48;100.00
7966;BME280;4028;43.272;26.932;2023-01-26T02:27:04;99941.66;;;1.66;100.00
7966;BME280;4028;43.272;26.932;2023-01-26T02:29:30;99944.19;;;1.68;100.00
7966;BME280;4028;43.272;26.932;2023-01-26T02:31:55;99944.38;;;1.63;100.00
7966;BME280;4028;43.272;26.932;2023-01-26T02:34:21;99955.28;;;1.73;100.00
7966;BME280;4028;43.272;26.932;2023-01-26T02:36:59;99951.06;;;1.70;100.00
7966;BME280;4028;43.272;26.932;2023-01-26T02:39:43;99944.19;;;1.68;100.00
7966;BME280;4028;43.272;26.932;2023-01-26T02:42:10;99941.59;;;1.68;100.00
7966;BME280;4028;43.272;26.932;2023-01-26T02:45:11;99932.59;;;1.75;100.00
7966;BME280;4028;43.272;26.932;2023-01-26T02:47:37;99933.13;;;1.63;100.00
7966;BME280;4028;43.272;26.932;2023-01-26T02:50:05;99924.72;;;1.56;100.00
7966;BME280;4028;43.272;26.932;2023-01-26T02:52:31;99917.19;;;1.50;100.00
7966;BME280;4028;43.272;26.932;2023-01-26T02:54:56;99923.97;;;1.54;100.00
7966;BME280;4028;43.272;26.932;2023-01-26T02:57:40;99922.00;;;1.59;100.00
7966;BME280;4028;43.272;26.932;2023-01-26T03:00:09;99919.50;;;1.56;100.00
7966;BME280;4028;43.272;26.932;2023-01-26T03:02:35;99925.72;;;1.72;100.00
7966;BME280;4028;43.272;26.932;2023-01-26T03:05:00;99912.34;;;1.80;100.00
7966;BME280;4028;43.272;26.932;2023-01-26T03:07:26;99913.69;;;1.70;100.00
7966;BME280;4028;43.272;26.932;2023-01-26T03:09:51;99908.38;;;1.71;100.00
7966;BME280;4028;43.272;26.932;2023-01-26T03:12:17;99909.03;;;1.76;100.00
7966;BME280;4028;43.272;26.932;2023-01-26T03:14:43;99911.72;;;1.75;100.00
7966;BME280;4028;43.272;26.932;2023-01-26T03:17:08;99904.22;;;1.67;100.00
7966;BME280;4028;43.272;26.932;2023-01-26T03:19:34;99900.84;;;1.65;100.00
7966;BME280;4028;43.272;26.932;2023-01-26T03:22:18;99898.16;;;1.67;100.00
7966;BME280;4028;43.272;26.932;2023-01-26T03:25:02;99904.13;;;1.69;100.00
7966;BME280;4028;43.272;26.932;2023-01-26T03:27:48;99909.03;;;1.76;100.00
7966;BME280;4028;43.272;26.932;2023-01-26T03:30:16;99910.22;;;1.69;100.00
7966;BME280;4028;43.272;26.932;2023-01-26T03:32:42;99908.59;;;1.67;100.00
7966;BME280;4028;43.272;26.932;2023-01-26T03:35:08;99900.69;;;1.68;100.00
7966;BME280;4028;43.272;26.932;2023-01-26T03:37:42;99863.03;;;1.55;100.00
7966;BME280;4028;43.272;26.932;2023-01-26T03:40:11;99897.81;;;1.74;100.00
7966;BME280;4028;43.272;26.932;2023-01-26T03:42:56;99894.78;;;1.65;100.00
7966;BME280;4028;43.272;26.932;2023-01-26T03:45:40;99893.69;;;1.69;100.00
7966;BME280;4028;43.272;26.932;2023-01-26T03:48:24;99890.41;;;1.65;100.00
7966;BME280;4028;43.272;26.932;2023-01-26T03:51:08;99877.56;;;1.61;100.00
7966;BME280;4028;43.272;26.932;2023-01-26T03:53:52;99886.59;;;1.72;100.00
7966;BME280;4028;43.272;26.932;2023-01-26T03:56:35;99885.63;;;1.75;100.00
7966;BME280;4028;43.272;26.932;2023-01-26T03:59:03;99880.81;;;1.66;100.00
7966;BME280;4028;43.272;26.932;2023-01-26T04:01:34;99883.50;;;1.64;100.00
7966;BME280;4028;43.272;26.932;2023-01-26T04:04:00;99877.41;;;1.64;100.00
7966;BME280;4028;43.272;26.932;2023-01-26T04:06:45;99859.38;;;1.59;100.00
7966;BME280;4028;43.272;26.932;2023-01-26T04:09:30;99876.63;;;1.62;100.00
7966;BME280;4028;43.272;26.932;2023-01-26T04:11:56;99873.28;;;1.60;100.00
7966;BME280;4028;43.272;26.932;2023-01-26T04:14:22;99852.16;;;1.45;100.00
7966;BME280;4028;43.272;26.932;2023-01-26T04:17:06;99874.78;;;1.64;100.00
7966;BME280;4028;43.272;26.932;2023-01-26T04:19:51;99874.16;;;1.59;100.00
7966;BME280;4028;43.272;26.932;2023-01-26T04:22:39;99877.00;;;1.54;100.00
7966;BME280;4028;43.272;26.932;2023-01-26T04:25:14;99877.00;;;1.54;100.00
7966;BME280;4028;43.272;26.932;2023-01-26T04:27:41;99869.81;;;1.59;100.00
7966;BME280;4028;43.272;26.932;2023-01-26T04:30:10;99871.53;;;1.59;100.00
7966;BME280;4028;43.272;26.932;2023-01-26T04:32:35;99867.25;;;1.58;100.00
7966;BME280;4028;43.272;26.932;2023-01-26T04:35:01;99851.38;;;1.43;100.00
7966;BME280;4028;43.272;26.932;2023-01-26T04:37:27;99867.25;;;1.58;100.00
7966;BME280;4028;43.272;26.932;2023-01-26T04:39:52;99868.94;;;1.59;100.00
7966;BME280;4028;43.272;26.932;2023-01-26T04:42:18;99864.22;;;1.67;100.00
7966;BME280;4028;43.272;26.932;2023-01-26T04:44:43;99818.47;;;1.41;100.00
7966;BME280;4028;43.272;26.932;2023-01-26T04:47:09;99868.59;;;1.66;100.00
7966;BME280;4028;43.272;26.932;2023-01-26T04:49:35;99875.66;;;1.64;100.00
7966;BME280;4028;43.272;26.932;2023-01-26T04:52:00;99841.53;;;1.50;100.00
7966;BME280;4028;43.272;26.932;2023-01-26T04:54:25;99859.09;;;1.65;100.00
7966;BME280;4028;43.272;26.932;2023-01-26T04:56:51;99864.44;;;1.62;100.00
7966;BME280;4028;43.272;26.932;2023-01-26T04:59:16;99857.53;;;1.61;100.00
7966;BME280;4028;43.272;26.932;2023-01-26T05:01:42;99839.69;;;1.71;100.00
7966;BME280;4028;43.272;26.932;2023-01-26T05:04:10;99842.50;;;1.66;100.00
7966;BME280;4028;43.272;26.932;2023-01-26T05:06:37;99850.13;;;1.71;100.00
7966;BME280;4028;43.272;26.932;2023-01-26T05:09:03;99849.09;;;1.75;100.00
7966;BME280;4028;43.272;26.932;2023-01-26T05:11:29;99856.28;;;1.70;100.00
7966;BME280;4028;43.272;26.932;2023-01-26T05:13:55;99851.94;;;1.69;100.00
7966;BME280;4028;43.272;26.932;2023-01-26T05:16:20;99846.69;;;1.70;100.00
7966;BME280;4028;43.272;26.932;2023-01-26T05:18:46;99854.34;;;1.73;100.00
7966;BME280;4028;43.272;26.932;2023-01-26T05:21:11;99841.38;;;1.72;100.00
7966;BME280;4028;43.272;26.932;2023-01-26T05:23:37;99826.78;;;1.68;100.00
7966;BME280;4028;43.272;26.932;2023-01-26T05:26:03;99834.41;;;1.72;100.00
7966;BME280;4028;43.272;26.932;2023-01-26T05:28:28;99833.44;;;1.75;100.00
7966;BME280;4028;43.272;26.932;2023-01-26T05:30:54;99843.91;;;1.73;100.00
7966;BME280;4028;43.272;26.932;2023-01-26T05:33:20;99841.59;;;1.67;100.00
7966;BME280;4028;43.272;26.932;2023-01-26T05:35:50;99836.09;;;1.73;100.00
7966;BME280;4028;43.272;26.932;2023-01-26T05:38:17;99812.00;;;1.49;100.00
7966;BME280;4028;43.272;26.932;2023-01-26T05:40:43;99835.41;;;1.70;100.00
7966;BME280;4028;43.272;26.932;2023-01-26T05:43:10;99833.69;;;1.69;100.00
7966;BME280;4028;43.272;26.932;2023-01-26T05:45:36;99836.53;;;1.64;100.00
7966;BME280;4028;43.272;26.932;2023-01-26T05:48:01;99837.50;;;1.62;100.00
7966;BME280;4028;43.272;26.932;2023-01-26T05:50:27;99825.81;;;1.70;100.00
7966;BME280;4028;43.272;26.932;2023-01-26T05:52:53;99841.25;;;1.75;100.00
7966;BME280;4028;43.272;26.932;2023-01-26T05:55:18;99837.16;;;1.69;100.00
7966;BME280;4028;43.272;26.932;2023-01-26T05:57:44;99837.81;;;1.74;100.00
7966;BME280;4028;43.272;26.932;2023-01-26T06:00:11;99839.31;;;1.78;100.00
7966;BME280;4028;43.272;26.932;2023-01-26T06:02:36;99827.00;;;1.82;100.00
7966;BME280;4028;43.272;26.932;2023-01-26T06:05:03;99824.59;;;1.77;100.00
7966;BME280;4028;43.272;26.932;2023-01-26T06:07:28;99812.47;;;1.76;100.00
7966;BME280;4028;43.272;26.932;2023-01-26T06:09:54;99816.78;;;1.77;100.00
7966;BME280;4028;43.272;26.932;2023-01-26T06:12:20;99822.53;;;1.84;100.00
7966;BME280;4028;43.272;26.932;2023-01-26T06:14:46;99762.03;;;1.40;100.00
7966;BME280;4028;43.272;26.932;2023-01-26T06:17:16;99834.31;;;1.74;100.00
7966;BME280;4028;43.272;26.932;2023-01-26T06:19:42;99835.25;;;1.73;100.00
7966;BME280;4028;43.272;26.932;2023-01-26T06:22:08;99834.56;;;1.69;100.00
7966;BME280;4028;43.272;26.932;2023-01-26T06:24:34;99825.84;;;1.69;100.00
7966;BME280;4028;43.272;26.932;2023-01-26T06:27:00;99809.31;;;1.70;100.00
7966;BME280;4028;43.272;26.932;2023-01-26T06:29:26;99811.97;;;1.68;100.00
7966;BME280;4028;43.272;26.932;2023-01-26T06:31:52;99797.88;;;1.53;100.00
7966;BME280;4028;43.272;26.932;2023-01-26T06:34:17;99813.06;;;1.64;100.00
7966;BME280;4028;43.272;26.932;2023-01-26T06:36:44;99817.06;;;1.71;100.00
7966;BME280;4028;43.272;26.932;2023-01-26T06:39:10;99814.66;;;1.86;100.00
7966;BME280;4028;43.272;26.932;2023-01-26T06:41:36;99807.28;;;1.94;100.00
7966;BME280;4028;43.272;26.932;2023-01-26T06:44:02;99815.34;;;1.89;100.00
7966;BME280;4028;43.272;26.932;2023-01-26T06:46:27;99812.50;;;1.94;100.00
7966;BME280;4028;43.272;26.932;2023-01-26T06:48:53;99800.47;;;1.91;100.00
7966;BME280;4028;43.272;26.932;2023-01-26T06:53:50;99807.47;;;1.91;100.00
7966;BME280;4028;43.272;26.932;2023-01-26T06:56:17;99798.63;;;1.93;100.00
7966;BME280;4028;43.272;26.932;2023-01-26T06:58:42;99801.09;;;1.96;100.00
7966;BME280;4028;43.272;26.932;2023-01-26T07:01:18;99785.72;;;1.90;100.00
7966;BME280;4028;43.272;26.932;2023-01-26T07:03:46;99799.63;;;1.91;100.00
7966;BME280;4028;43.272;26.932;2023-01-26T07:06:12;99804.09;;;2.06;100.00
7966;BME280;4028;43.272;26.932;2023-01-26T07:08:38;99792.03;;;2.03;100.00
7966;BME280;4028;43.272;26.932;2023-01-26T07:11:04;99805.94;;;2.04;100.00
7966;BME280;4028;43.272;26.932;2023-01-26T07:13:30;99785.56;;;1.93;100.00
7966;BME280;4028;43.272;26.932;2023-01-26T07:16:02;99804.25;;;2.03;100.00
7966;BME280;4028;43.272;26.932;2023-01-26T07:18:28;99785.44;;;1.96;100.00
7966;BME280;4028;43.272;26.932;2023-01-26T07:20:53;99795.44;;;2.05;100.00
7966;BME280;4028;43.272;26.932;2023-01-26T07:23:19;99791.91;;;2.06;100.00
7966;BME280;4028;43.272;26.932;2023-01-26T07:25:44;99789.72;;;1.97;100.00
7966;BME280;4028;43.272;26.932;2023-01-26T07:28:10;99786.56;;;1.91;100.00
7966;BME280;4028;43.272;26.932;2023-01-26T07:30:35;99788.41;;;1.89;100.00
7966;BME280;4028;43.272;26.932;2023-01-26T07:33:01;99766.84;;;1.85;100.00
7966;BME280;4028;43.272;26.932;2023-01-26T07:35:27;99775.13;;;1.93;100.00
7966;BME280;4028;43.272;26.932;2023-01-26T07:37:54;99775.28;;;1.90;100.00
7966;BME280;4028;43.272;26.932;2023-01-26T07:40:22;99765.63;;;1.92;100.00
7966;BME280;4028;43.272;26.932;2023-01-26T07:42:47;99773.94;;;2.00;100.00
7966;BME280;4028;43.272;26.932;2023-01-26T07:45:13;99780.13;;;1.98;100.00
7966;BME280;4028;43.272;26.932;2023-01-26T07:47:38;99783.13;;;1.90;100.00
7966;BME280;4028;43.272;26.932;2023-01-26T07:50:04;99776.06;;;1.92;100.00
7966;BME280;4028;43.272;26.932;2023-01-26T07:52:31;99771.22;;;1.85;100.00
7966;BME280;4028;43.272;26.932;2023-01-26T07:54:56;99771.59;;;1.94;100.00
7966;BME280;4028;43.272;26.932;2023-01-26T07:57:22;99761.91;;;2.15;100.00
7966;BME280;4028;43.272;26.932;2023-01-26T07:59:47;99762.56;;;2.19;100.00
7966;BME280;4028;43.272;26.932;2023-01-26T08:02:13;99765.56;;;2.28;100.00
7966;BME280;4028;43.272;26.932;2023-01-26T08:04:38;99761.34;;;2.26;100.00
7966;BME280;4028;43.272;26.932;2023-01-26T08:07:04;99764.88;;;2.25;100.00
7966;BME280;4028;43.272;26.932;2023-01-26T08:09:29;99763.78;;;2.29;100.00
7966;BME280;4028;43.272;26.932;2023-01-26T08:11:58;99752.59;;;2.27;100.00
7966;BME280;4028;43.272;26.932;2023-01-26T08:14:23;99744.69;;;2.28;100.00
7966;BME280;4028;43.272;26.932;2023-01-26T08:16:49;99743.84;;;2.28;100.00
7966;BME280;4028;43.272;26.932;2023-01-26T08:19:14;99751.59;;;2.29;100.00
7966;BME280;4028;43.272;26.932;2023-01-26T08:21:40;99753.22;;;2.32;100.00
7966;BME280;4028;43.272;26.932;2023-01-26T08:24:05;99757.50;;;2.33;100.00
7966;BME280;4028;43.272;26.932;2023-01-26T08:26:31;99760.66;;;2.40;100.00
7966;BME280;4028;43.272;26.932;2023-01-26T08:28:56;99761.66;;;2.37;100.00
7966;BME280;4028;43.272;26.932;2023-01-26T08:31:22;99742.16;;;2.27;100.00
7966;BME280;4028;43.272;26.932;2023-01-26T08:33:50;99741.69;;;2.36;100.00
7966;BME280;4028;43.272;26.932;2023-01-26T08:36:17;99668.72;;;1.98;100.00
7966;BME280;4028;43.272;26.932;2023-01-26T08:38:43;99743.22;;;2.40;100.00
7966;BME280;4028;43.272;26.932;2023-01-26T08:41:10;99743.81;;;2.45;100.00
7966;BME280;4028;43.272;26.932;2023-01-26T08:43:36;99743.34;;;2.54;100.00
7966;BME280;4028;43.272;26.932;2023-01-26T08:46:02;99738.91;;;2.56;100.00
7966;BME280;4028;43.272;26.932;2023-01-26T08:48:28;99707.66;;;2.38;100.00
7966;BME280;4028;43.272;26.932;2023-01-26T08:50:56;99722.78;;;2.48;100.00
7966;BME280;4028;43.272;26.932;2023-01-26T08:53:23;99718.16;;;2.53;100.00
7966;BME280;4028;43.272;26.932;2023-01-26T08:55:49;99710.94;;;2.58;100.00
7966;BME280;4028;43.272;26.932;2023-01-26T08:58:15;99710.22;;;2.55;100.00
7966;BME280;4028;43.272;26.932;2023-01-26T09:00:41;99717.16;;;2.56;100.00
7966;BME280;4028;43.272;26.932;2023-01-26T09:03:06;99704.53;;;2.64;100.00
7966;BME280;4028;43.272;26.932;2023-01-26T09:05:34;99688.16;;;2.60;100.00
7966;BME280;4028;43.272;26.932;2023-01-26T09:08:00;99693.94;;;2.67;100.00
7966;BME280;4028;43.272;26.932;2023-01-26T09:10:26;99663.28;;;2.53;100.00
7966;BME280;4028;43.272;26.932;2023-01-26T09:12:52;99690.06;;;2.74;100.00
7966;BME280;4028;43.272;26.932;2023-01-26T09:15:17;99682.72;;;2.81;100.00
7966;BME280;4028;43.272;26.932;2023-01-26T09:17:43;99680.31;;;2.78;100.00
7966;BME280;4028;43.272;26.932;2023-01-26T09:20:09;99682.81;;;2.79;100.00
7966;BME280;4028;43.272;26.932;2023-01-26T09:22:35;99670.19;;;2.72;100.00
7966;BME280;4028;43.272;26.932;2023-01-26T09:25:01;99672.78;;;2.72;100.00
7966;BME280;4028;43.272;26.932;2023-01-26T09:27:27;99664.63;;;2.78;100.00
7966;BME280;4028;43.272;26.932;2023-01-26T09:29:52;99655.50;;;2.85;100.00
7966;BME280;4028;43.272;26.932;2023-01-26T09:32:18;99653.69;;;2.87;100.00
7966;BME280;4028;43.272;26.932;2023-01-26T09:34:44;99650.53;;;2.96;100.00
7966;BME280;4028;43.272;26.932;2023-01-26T09:37:09;99647.19;;;2.94;100.00
7966;BME280;4028;43.272;26.932;2023-01-26T09:39:35;99630.06;;;2.89;100.00
7966;BME280;4028;43.272;26.932;2023-01-26T09:44:47;99631.00;;;3.03;100.00
7966;BME280;4028;43.272;26.932;2023-01-26T09:52:29;99613.69;;;3.17;100.00
7966;BME280;4028;43.272;26.932;2023-01-26T09:54:59;99607.69;;;3.15;100.00
7966;BME280;4028;43.272;26.932;2023-01-26T09:57:42;99596.78;;;3.22;100.00
7966;BME280;4028;43.272;26.932;2023-01-26T10:00:43;99599.16;;;3.27;100.00
7966;BME280;4028;43.272;26.932;2023-01-26T10:05:59;99596.63;;;3.25;100.00
7966;BME280;4028;43.272;26.932;2023-01-26T10:08:30;99601.44;;;3.33;100.00
7966;BME280;4028;43.272;26.932;2023-01-26T10:11:03;99601.44;;;3.33;100.00
7966;BME280;4028;43.272;26.932;2023-01-26T10:13:29;99596.97;;;3.35;100.00
7966;BME280;4028;43.272;26.932;2023-01-26T10:15:59;99593.25;;;3.39;100.00
7966;BME280;4028;43.272;26.932;2023-01-26T10:18:32;99595.44;;;3.31;100.00
7966;BME280;4028;43.272;26.932;2023-01-26T10:21:00;99591.16;;;3.30;100.00
7966;BME280;4028;43.272;26.932;2023-01-26T10:23:31;99590.88;;;3.34;100.00
7966;BME280;4028;43.272;26.932;2023-01-26T10:26:19;99590.78;;;3.36;100.00
7966;BME280;4028;43.272;26.932;2023-01-26T10:28:46;99567.69;;;3.28;100.00
7966;BME280;4028;43.272;26.932;2023-01-26T10:31:27;99577.72;;;3.36;100.00
7966;BME280;4028;43.272;26.932;2023-01-26T10:34:17;99579.50;;;3.35;100.00
7966;BME280;4028;43.272;26.932;2023-01-26T10:36:45;99560.75;;;3.27;100.00
7966;BME280;4028;43.272;26.932;2023-01-26T10:39:15;99580.38;;;3.50;100.00
7966;BME280;4028;43.272;26.932;2023-01-26T10:42:02;99570.63;;;3.38;100.00
7966;BME280;4028;43.272;26.932;2023-01-26T10:44:33;99564.84;;;3.47;100.00
7966;BME280;4028;43.272;26.932;2023-01-26T10:47:21;99564.28;;;3.42;100.00
7966;BME280;4028;43.272;26.932;2023-01-26T10:49:47;99548.84;;;3.37;100.00
7966;BME280;4028;43.272;26.932;2023-01-26T10:52:22;99542.78;;;3.37;100.00
7966;BME280;4028;43.272;26.932;2023-01-26T10:55:11;99534.66;;;3.42;100.00
7966;BME280;4028;43.272;26.932;2023-01-26T10:57:39;99544.97;;;3.45;100.00
7966;BME280;4028;43.272;26.932;2023-01-26T11:00:22;99535.34;;;3.45;100.00
7966;BME280;4028;43.272;26.932;2023-01-26T11:02:51;99525.81;;;3.44;100.00
7966;BME280;4028;43.272;26.932;2023-01-26T11:05:22;99503.53;;;3.37;100.00
7966;BME280;4028;43.272;26.932;2023-01-26T11:07:57;99511.94;;;3.42;100.00
7966;BME280;4028;43.272;26.932;2023-01-26T11:10:36;99507.41;;;3.46;100.00
7966;BME280;4028;43.272;26.932;2023-01-26T11:15:38;99506.75;;;3.56;100.00
7966;BME280;4028;43.272;26.932;2023-01-26T11:18:28;99500.69;;;3.56;100.00
7966;BME280;4028;43.272;26.932;2023-01-26T11:20:59;99494.44;;;3.73;100.00
7966;BME280;4028;43.272;26.932;2023-01-26T11:34:21;99484.53;;;3.78;100.00
7966;BME280;4028;43.272;26.932;2023-01-26T11:42:19;99473.13;;;3.64;100.00
7966;BME280;4028;43.272;26.932;2023-01-26T11:56:01;99458.28;;;3.65;100.00
7966;BME280;4028;43.272;26.932;2023-01-26T11:58:44;99445.09;;;3.67;100.00
7966;BME280;4028;43.272;26.932;2023-01-26T12:01:17;99455.00;;;3.76;100.00
7966;BME280;4028;43.272;26.932;2023-01-26T12:03:50;99426.97;;;3.63;100.00
7966;BME280;4028;43.272;26.932;2023-01-26T12:06:19;99432.56;;;3.72;100.00
7966;BME280;4028;43.272;26.932;2023-01-26T12:08:51;99443.03;;;3.72;100.00
7966;BME280;4028;43.272;26.932;2023-01-26T12:22:23;99407.41;;;3.83;100.00
7966;BME280;4028;43.272;26.932;2023-01-26T12:25:40;99402.66;;;3.90;100.00
7966;BME280;4028;43.272;26.932;2023-01-26T12:27:48;99397.13;;;3.80;100.00
7966;BME280;4028;43.272;26.932;2023-01-26T12:33:22;99399.66;;;3.82;100.00
7966;BME280;4028;43.272;26.932;2023-01-26T12:38:25;99378.59;;;3.83;100.00
7966;BME280;4028;43.272;26.932;2023-01-26T12:41:02;99381.69;;;3.90;100.00
7966;BME280;4028;43.272;26.932;2023-01-26T12:46:40;99358.31;;;3.87;100.00
7966;BME280;4028;43.272;26.932;2023-01-26T12:51:48;99316.97;;;3.65;100.00
7966;BME280;4028;43.272;26.932;2023-01-26T12:57:16;99338.75;;;4.07;100.00
7966;BME280;4028;43.272;26.932;2023-01-26T12:59:44;99344.56;;;3.98;100.00
7966;BME280;4028;43.272;26.932;2023-01-26T13:04:49;99352.00;;;4.04;100.00
7966;BME280;4028;43.272;26.932;2023-01-26T13:07:36;99340.91;;;4.00;100.00
7966;BME280;4028;43.272;26.932;2023-01-26T13:10:19;99343.88;;;4.08;100.00
7966;BME280;4028;43.272;26.932;2023-01-26T13:13:24;99341.91;;;4.12;100.00
7966;BME280;4028;43.272;26.932;2023-01-26T13:15:46;99339.81;;;4.17;100.00
7966;BME280;4028;43.272;26.932;2023-01-26T13:18:15;99343.53;;;4.27;100.00
7966;BME280;4028;43.272;26.932;2023-01-26T13:20:46;99334.28;;;4.22;100.00
7966;BME280;4028;43.272;26.932;2023-01-26T13:26:17;99321.19;;;4.22;100.00
7966;BME280;4028;43.272;26.932;2023-01-26T13:28:47;99328.94;;;4.23;100.00
7966;BME280;4028;43.272;26.932;2023-01-26T13:31:31;99329.38;;;4.30;100.00
7966;BME280;4028;43.272;26.932;2023-01-26T13:34:02;99327.41;;;4.33;100.00
7966;BME280;4028;43.272;26.932;2023-01-26T13:36:34;99312.81;;;4.16;100.00
7966;BME280;4028;43.272;26.932;2023-01-26T13:39:28;99339.38;;;4.37;100.00
7966;BME280;4028;43.272;26.932;2023-01-26T13:41:55;99329.09;;;4.34;100.00
7966;BME280;4028;43.272;26.932;2023-01-26T13:44:37;99337.50;;;4.39;100.00
7966;BME280;4028;43.272;26.932;2023-01-26T13:47:07;99338.13;;;4.43;100.00
7966;BME280;4028;43.272;26.932;2023-01-26T13:49:38;99331.13;;;4.43;100.00
7966;BME280;4028;43.272;26.932;2023-01-26T13:52:16;99329.44;;;4.42;100.00
7966;BME280;4028;43.272;26.932;2023-01-26T13:54:43;99325.03;;;4.43;100.00
7966;BME280;4028;43.272;26.932;2023-01-26T13:57:19;99317.28;;;4.41;100.00
7966;BME280;4028;43.272;26.932;2023-01-26T13:59:52;99309.44;;;4.41;100.00
7966;BME280;4028;43.272;26.932;2023-01-26T14:02:28;99296.94;;;4.45;100.00
7966;BME280;4028;43.272;26.932;2023-01-26T14:04:59;99298.50;;;4.35;100.00
7966;BME280;4028;43.272;26.932;2023-01-26T14:07:40;99302.53;;;4.53;100.00
7966;BME280;4028;43.272;26.932;2023-01-26T14:10:15;99303.25;;;4.55;100.00
7966;BME280;4028;43.272;26.932;2023-01-26T14:12:44;99299.72;;;4.56;100.00
7966;BME280;4028;43.272;26.932;2023-01-26T14:15:30;99299.84;;;4.67;100.00
7966;BME280;4028;43.272;26.932;2023-01-26T14:18:00;99293.84;;;4.65;100.00
7966;BME280;4028;43.272;26.932;2023-01-26T14:20:30;99285.97;;;4.65;100.00
7966;BME280;4028;43.272;26.932;2023-01-26T14:25:42;99289.88;;;4.73;100.00
7966;BME280;4028;43.272;26.932;2023-01-26T14:28:19;99286.19;;;4.75;100.00
7966;BME280;4028;43.272;26.932;2023-01-26T14:30:51;99272.97;;;4.64;100.00
7966;BME280;4028;43.272;26.932;2023-01-26T14:33:19;99280.88;;;4.77;100.00
7966;BME280;4028;43.272;26.932;2023-01-26T14:35:59;99285.06;;;4.79;100.00
7966;BME280;4028;43.272;26.932;2023-01-26T14:38:27;99289.25;;;4.94;100.00
7966;BME280;4028;43.272;26.932;2023-01-26T14:40:57;99275.94;;;4.98;100.00
7966;BME280;4028;43.272;26.932;2023-01-26T14:43:25;99275.19;;;4.95;100.00
7966;BME280;4028;43.272;26.932;2023-01-26T14:46:32;99275.63;;;4.89;100.00